Time;durP1;ratioP1;P1;durP2;ratioP2;P2;SDS_P1;SDS_P2;PMS_P1;PMS_P2;Temp;Humidity;BMP_temperature;BMP_pressure;BME280_temperature;BME280_humidity;BME280_pressure;Samples;Min_cycle;Max_cycle;Signal;HPM_P1;HPM_P2
2021/09/12 00:02:05;;;;;;;6.22;4.97;;;16.00;99.90;;;;;;1973616;72;21058;-77
2021/09/12 00:04:31;;;;;;;12.03;6.70;;;16.00;99.90;;;;;;1973697;72;21071;-78
2021/09/12 00:06:58;;;;;;;8.78;6.20;;;16.00;99.90;;;;;;1979612;72;21075;-77
2021/09/12 00:09:24;;;;;;;7.33;6.15;;;16.00;99.90;;;;;;1991396;72;21097;-77
2021/09/12 00:11:50;;;;;;;13.20;7.67;;;16.00;99.90;;;;;;1978413;72;21147;-77
2021/09/12 00:14:17;;;;;;;12.78;8.70;;;16.10;99.90;;;;;;1978900;72;21051;-77
2021/09/12 00:16:43;;;;;;;13.55;9.50;;;16.10;99.90;;;;;;1974415;73;21129;-77
2021/09/12 00:19:09;;;;;;;17.57;9.63;;;16.00;99.90;;;;;;1974537;73;21032;-77
2021/09/12 00:21:35;;;;;;;20.35;10.68;;;15.90;99.90;;;;;;1974421;72;21055;-77
2021/09/12 00:24:01;;;;;;;14.58;11.20;;;16.00;99.90;;;;;;1974406;73;21051;-77
2021/09/12 00:26:27;;;;;;;15.23;10.40;;;16.00;99.90;;;;;;1984105;72;21079;-77
2021/09/12 00:28:54;;;;;;;18.12;10.38;;;16.00;99.90;;;;;;1977189;72;21063;-77
2021/09/12 00:31:20;;;;;;;25.52;10.95;;;16.00;99.90;;;;;;1980692;72;21067;-77
2021/09/12 00:33:46;;;;;;;25.57;10.32;;;16.00;99.90;;;;;;1967004;72;21192;-77
2021/09/12 00:36:12;;;;;;;39.45;9.85;;;15.90;99.90;;;;;;1977035;72;21059;-77
2021/09/12 00:38:38;;;;;;;23.65;10.03;;;15.90;99.90;;;;;;1982886;72;21060;-77
2021/09/12 00:41:04;;;;;;;13.20;10.25;;;15.90;99.90;;;;;;1971022;72;21076;-77
2021/09/12 00:43:30;;;;;;;20.70;10.43;;;15.90;99.90;;;;;;1973780;72;21140;-78
2021/09/12 00:45:56;;;;;;;16.23;10.60;;;15.80;99.90;;;;;;1974353;73;21144;-77
2021/09/12 00:48:23;;;;;;;20.45;10.58;;;15.80;99.90;;;;;;1971987;72;21124;-77
2021/09/12 00:50:49;;;;;;;17.30;10.38;;;15.80;99.90;;;;;;1972993;72;21063;-77
2021/09/12 00:53:15;;;;;;;13.85;10.10;;;15.80;99.90;;;;;;1974207;72;21075;-77
2021/09/12 00:55:41;;;;;;;15.28;10.65;;;15.80;99.90;;;;;;1975921;71;21070;-78
2021/09/12 00:58:07;;;;;;;13.55;9.75;;;15.80;99.90;;;;;;1975281;70;21131;-78
2021/09/12 01:00:33;;;;;;;9.28;8.35;;;15.90;99.90;;;;;;1975463;71;21102;-77
2021/09/12 01:02:59;;;;;;;8.73;7.78;;;15.80;99.90;;;;;;1981263;69;21064;-78
2021/09/12 01:05:25;;;;;;;9.30;7.33;;;15.80;99.90;;;;;;1970506;72;21528;-78
2021/09/12 01:07:52;;;;;;;14.83;7.72;;;15.70;99.90;;;;;;1974266;72;21491;-77
2021/09/12 01:10:18;;;;;;;9.98;7.75;;;15.80;99.90;;;;;;1967709;72;21540;-77
2021/09/12 01:12:44;;;;;;;13.88;6.78;;;15.80;99.90;;;;;;1970426;72;21487;-77
2021/09/12 01:15:10;;;;;;;11.53;7.33;;;15.90;99.90;;;;;;1980382;72;21440;-77
2021/09/12 01:17:36;;;;;;;8.68;7.78;;;15.80;99.90;;;;;;1983717;72;21487;-77
2021/09/12 01:20:02;;;;;;;13.85;7.95;;;15.70;99.90;;;;;;1974485;73;21118;-77
2021/09/12 01:22:29;;;;;;;8.48;7.65;;;15.70;99.90;;;;;;1962622;72;21080;-77
2021/09/12 01:24:55;;;;;;;10.50;8.25;;;15.70;99.90;;;;;;1974998;72;21132;-77
2021/09/12 01:27:21;;;;;;;16.93;9.35;;;15.60;99.90;;;;;;1980125;72;21151;-77
2021/09/12 01:29:47;;;;;;;10.18;8.53;;;15.60;99.90;;;;;;1974533;72;21147;-77
2021/09/12 01:32:13;;;;;;;12.58;10.23;;;15.60;99.90;;;;;;1971153;72;21505;-77
2021/09/12 01:34:39;;;;;;;11.75;9.65;;;15.50;99.90;;;;;;1970660;72;21476;-78
2021/09/12 01:37:06;;;;;;;22.17;9.70;;;15.50;99.90;;;;;;1973536;72;21478;-78
2021/09/12 01:39:32;;;;;;;15.20;10.20;;;15.50;99.90;;;;;;1977368;72;21482;-77
2021/09/12 01:41:58;;;;;;;16.95;10.93;;;15.50;99.90;;;;;;1971153;72;21551;-77
2021/09/12 01:44:24;;;;;;;13.48;11.25;;;15.50;99.90;;;;;;1973018;72;21428;-77
2021/09/12 01:46:50;;;;;;;14.05;11.15;;;15.50;99.90;;;;;;1972258;72;21511;-77
2021/09/12 01:49:16;;;;;;;16.60;12.37;;;15.50;99.90;;;;;;1969122;72;21116;-77
2021/09/12 01:51:42;;;;;;;17.37;11.73;;;15.50;99.90;;;;;;1979070;72;21036;-77
2021/09/12 01:54:08;;;;;;;14.85;11.25;;;15.50;99.90;;;;;;1973937;72;21067;-77
2021/09/12 01:56:35;;;;;;;12.98;10.55;;;15.60;99.90;;;;;;1967593;72;21173;-77
2021/09/12 01:59:01;;;;;;;15.95;11.28;;;15.60;99.90;;;;;;1967929;72;21211;-78
2021/09/12 02:01:27;;;;;;;12.05;9.68;;;15.60;99.90;;;;;;1970730;72;21070;-77
2021/09/12 02:03:53;;;;;;;12.13;10.15;;;15.70;99.90;;;;;;1977405;72;21121;-77
2021/09/12 02:06:19;;;;;;;14.87;10.15;;;15.80;99.90;;;;;;1972197;72;21043;-77
2021/09/12 02:08:45;;;;;;;13.68;11.10;;;15.70;99.90;;;;;;1975332;72;21147;-77
2021/09/12 02:11:11;;;;;;;12.33;9.65;;;15.60;99.90;;;;;;1974545;73;21125;-77
2021/09/12 02:13:37;;;;;;;12.47;9.45;;;15.60;99.90;;;;;;1974240;72;21127;-77
2021/09/12 02:16:04;;;;;;;14.15;9.15;;;15.70;99.90;;;;;;1972989;72;21131;-77
2021/09/12 02:18:30;;;;;;;11.33;9.88;;;15.70;99.90;;;;;;1969629;72;21119;-77
2021/09/12 02:20:56;;;;;;;10.82;9.48;;;15.70;99.90;;;;;;1982441;72;21071;-77
2021/09/12 02:23:22;;;;;;;12.85;9.50;;;15.60;99.90;;;;;;1977144;72;21028;-77
2021/09/12 02:25:48;;;;;;;11.80;10.13;;;15.60;99.90;;;;;;1974513;73;21088;-79
2021/09/12 02:28:14;;;;;;;9.53;8.33;;;15.60;99.90;;;;;;1974372;72;21071;-77
2021/09/12 02:30:41;;;;;;;13.25;8.95;;;15.60;99.90;;;;;;1973128;72;21031;-77
2021/09/12 02:33:07;;;;;;;10.78;9.78;;;15.60;99.90;;;;;;1967609;72;21084;-77
2021/09/12 02:35:34;;;;;;;11.35;9.83;;;15.40;99.90;;;;;;1971004;72;21071;-77
2021/09/12 02:38:00;;;;;;;14.00;9.98;;;15.40;99.90;;;;;;1972853;72;21128;-77
2021/09/12 02:40:26;;;;;;;12.80;9.13;;;15.30;99.90;;;;;;1971097;72;21032;-76
2021/09/12 02:42:52;;;;;;;10.48;9.03;;;15.30;99.90;;;;;;1972210;72;21047;-77
2021/09/12 02:45:18;;;;;;;10.23;9.23;;;15.20;99.90;;;;;;1983885;72;21078;-77
2021/09/12 02:47:44;;;;;;;9.93;8.93;;;15.30;99.90;;;;;;1974422;72;21217;-77
2021/09/12 02:50:11;;;;;;;9.18;8.20;;;15.30;99.90;;;;;;1973450;72;21076;-77
2021/09/12 02:52:37;;;;;;;11.73;10.28;;;15.40;99.90;;;;;;1974269;72;21078;-77
2021/09/12 02:55:03;;;;;;;13.25;11.30;;;15.40;99.90;;;;;;1974425;73;21031;-76
2021/09/12 02:57:29;;;;;;;21.10;11.70;;;15.40;99.90;;;;;;1967291;72;21127;-76
2021/09/12 02:59:56;;;;;;;12.23;10.93;;;15.30;99.90;;;;;;1974443;72;21113;-76
2021/09/12 03:02:22;;;;;;;14.30;11.35;;;15.30;99.90;;;;;;1974393;73;21059;-77
2021/09/12 03:04:48;;;;;;;16.00;12.15;;;15.30;99.90;;;;;;1965110;72;21075;-77
2021/09/12 03:07:15;;;;;;;12.23;9.53;;;15.30;99.90;;;;;;1982708;72;21124;-76
2021/09/12 03:09:41;;;;;;;13.40;10.63;;;15.30;99.90;;;;;;1977418;72;21040;-77
2021/09/12 03:12:07;;;;;;;15.03;9.98;;;15.20;99.90;;;;;;1974084;72;21063;-77
2021/09/12 03:14:33;;;;;;;12.60;10.78;;;15.10;99.90;;;;;;1976056;72;21054;-77
2021/09/12 03:16:59;;;;;;;15.65;11.75;;;15.00;99.90;;;;;;1974223;72;21068;-77
2021/09/12 03:19:25;;;;;;;14.43;11.48;;;15.10;99.90;;;;;;1974340;72;21136;-76
2021/09/12 03:21:51;;;;;;;15.50;11.43;;;15.00;99.90;;;;;;1974352;72;21202;-78
2021/09/12 03:24:17;;;;;;;16.70;10.70;;;15.00;99.90;;;;;;1974433;73;21063;-77
2021/09/12 03:26:44;;;;;;;13.53;10.28;;;15.10;99.90;;;;;;1974654;72;21132;-77
2021/09/12 03:29:10;;;;;;;11.80;10.35;;;15.10;99.90;;;;;;1970319;72;21187;-77
2021/09/12 03:31:36;;;;;;;14.65;10.93;;;15.10;99.90;;;;;;1971816;72;21040;-77
2021/09/12 03:34:02;;;;;;;10.25;9.25;;;15.10;99.90;;;;;;1969251;72;21194;-77
2021/09/12 03:36:28;;;;;;;11.93;10.28;;;15.00;99.90;;;;;;1977276;72;21115;-77
2021/09/12 03:38:54;;;;;;;14.23;10.18;;;15.00;99.90;;;;;;1977410;72;21032;-77
2021/09/12 03:41:20;;;;;;;11.73;10.40;;;15.10;99.90;;;;;;1972137;72;21175;-77
2021/09/12 03:43:46;;;;;;;10.88;9.80;;;15.10;99.90;;;;;;1968902;72;21062;-77
2021/09/12 03:46:13;;;;;;;13.32;10.03;;;15.20;99.90;;;;;;1979141;72;21139;-77
2021/09/12 03:48:39;;;;;;;12.05;9.35;;;15.00;99.90;;;;;;1971154;72;21075;-77
2021/09/12 03:51:05;;;;;;;10.80;9.73;;;15.00;99.90;;;;;;1973796;72;21561;-77
2021/09/12 03:53:31;;;;;;;13.08;8.90;;;15.00;99.90;;;;;;1974930;72;21431;-77
2021/09/12 03:55:57;;;;;;;11.05;9.35;;;14.90;99.90;;;;;;1965218;72;21494;-77
2021/09/12 03:58:23;;;;;;;19.00;8.40;;;14.90;99.90;;;;;;1984887;72;21475;-77
2021/09/12 04:00:49;;;;;;;9.80;8.65;;;14.90;99.90;;;;;;1980379;72;21573;-77
2021/09/12 04:03:15;;;;;;;17.10;8.58;;;14.80;99.90;;;;;;1981782;72;21444;-77
2021/09/12 04:05:42;;;;;;;9.25;8.28;;;14.70;99.90;;;;;;1974469;73;21540;-77
2021/09/12 04:08:08;;;;;;;10.60;8.68;;;14.70;99.90;;;;;;1975673;72;21662;-77
2021/09/12 04:10:34;;;;;;;12.73;8.90;;;14.70;99.90;;;;;;1975715;72;21471;-77
2021/09/12 04:13:01;;;;;;;8.63;7.83;;;14.70;99.90;;;;;;1991307;72;21050;-77
2021/09/12 04:15:27;;;;;;;12.82;8.03;;;14.70;99.90;;;;;;1969743;72;21093;-78
2021/09/12 04:17:53;;;;;;;9.10;8.10;;;14.70;99.90;;;;;;1975557;72;21125;-76
2021/09/12 04:20:19;;;;;;;9.28;8.25;;;14.60;99.90;;;;;;1963447;72;21067;-77
2021/09/12 04:22:46;;;;;;;10.88;7.60;;;14.60;99.90;;;;;;1970937;72;21133;-76
2021/09/12 04:25:12;;;;;;;7.95;7.12;;;14.60;99.90;;;;;;1974388;72;21136;-76
2021/09/12 04:27:38;;;;;;;15.03;7.75;;;14.60;99.90;;;;;;1969967;72;21077;-77
2021/09/12 04:30:04;;;;;;;7.28;6.58;;;14.60;99.90;;;;;;1975197;72;21024;-77
2021/09/12 04:32:30;;;;;;;8.15;7.35;;;14.60;99.90;;;;;;1967461;72;21109;-77
2021/09/12 04:34:56;;;;;;;9.33;8.30;;;14.60;99.90;;;;;;1974608;73;21476;-77
2021/09/12 04:37:22;;;;;;;9.33;8.43;;;14.50;99.90;;;;;;1974728;72;21568;-77
2021/09/12 04:39:48;;;;;;;14.50;9.28;;;14.50;99.90;;;;;;1989640;72;21428;-77
2021/09/12 04:42:15;;;;;;;8.15;6.92;;;14.50;99.90;;;;;;1967595;72;21516;-77
2021/09/12 04:44:41;;;;;;;7.50;6.75;;;14.60;99.90;;;;;;1974389;73;21515;-77
2021/09/12 04:47:07;;;;;;;11.45;8.35;;;14.60;99.90;;;;;;1974495;73;21471;-78
2021/09/12 04:49:33;;;;;;;19.77;8.40;;;14.70;99.90;;;;;;1980303;72;21564;-77
2021/09/12 04:51:59;;;;;;;10.00;8.73;;;14.60;99.90;;;;;;1974817;73;21406;-78
2021/09/12 04:54:25;;;;;;;11.03;9.18;;;14.60;99.90;;;;;;1967412;72;21137;-77
2021/09/12 04:56:51;;;;;;;9.80;8.53;;;14.50;99.90;;;;;;1970845;72;21032;-78
2021/09/12 04:59:17;;;;;;;10.70;8.95;;;14.50;99.90;;;;;;1967570;72;21184;-77
2021/09/12 05:01:43;;;;;;;10.50;9.25;;;14.60;99.90;;;;;;1973905;72;21113;-77
2021/09/12 05:04:10;;;;;;;11.25;8.73;;;14.60;99.90;;;;;;1974631;73;21088;-74
2021/09/12 05:06:36;;;;;;;11.57;9.65;;;14.60;99.90;;;;;;1965726;72;21068;-75
2021/09/12 05:09:02;;;;;;;10.05;9.03;;;14.60;99.90;;;;;;1977661;72;21071;-76
2021/09/12 05:11:28;;;;;;;9.73;8.58;;;14.70;99.90;;;;;;1975287;72;21122;-77
2021/09/12 05:13:54;;;;;;;10.35;8.90;;;14.60;99.90;;;;;;1969649;72;21076;-75
2021/09/12 05:16:20;;;;;;;8.45;7.65;;;14.60;99.90;;;;;;1976043;72;21075;-77
2021/09/12 05:18:50;;;;;;;20.27;9.85;;;14.60;99.90;;;;;;1974575;73;21173;-77
2021/09/12 05:21:14;;;;;;;10.53;9.28;;;14.50;99.90;;;;;;1979606;72;21467;-78
2021/09/12 05:23:40;;;;;;;11.05;8.80;;;14.60;99.90;;;;;;1975023;72;21520;-77
2021/09/12 05:26:06;;;;;;;9.68;8.78;;;14.60;99.90;;;;;;1974384;73;21545;-77
2021/09/12 05:28:34;;;;;;;9.83;8.78;;;14.50;99.90;;;;;;1974491;73;21121;-78
2021/09/12 05:31:00;;;;;;;12.05;9.68;;;14.50;99.90;;;;;;1974301;72;21095;-77
2021/09/12 05:33:26;;;;;;;11.78;8.70;;;14.60;99.90;;;;;;1974536;73;21096;-77
2021/09/12 05:35:52;;;;;;;9.55;8.43;;;14.70;99.90;;;;;;1970568;72;21051;-78
2021/09/12 05:38:18;;;;;;;10.98;9.18;;;14.70;99.90;;;;;;1974512;72;21143;-77
2021/09/12 05:40:44;;;;;;;23.47;8.83;;;14.70;99.90;;;;;;1978620;72;21073;-78
2021/09/12 05:43:10;;;;;;;10.43;8.00;;;14.60;99.90;;;;;;1985093;72;21124;-78
2021/09/12 05:45:37;;;;;;;10.38;8.60;;;14.50;99.90;;;;;;1973117;72;21137;-78
2021/09/12 05:48:03;;;;;;;9.03;7.22;;;14.50;99.90;;;;;;1973161;72;21152;-78
2021/09/12 05:50:29;;;;;;;7.12;6.42;;;14.50;99.90;;;;;;1963340;72;21073;-78
2021/09/12 05:52:55;;;;;;;8.35;7.53;;;14.40;99.90;;;;;;1991536;72;21474;-77
2021/09/12 05:55:21;;;;;;;6.90;6.20;;;14.40;99.90;;;;;;1984903;72;21530;-77
2021/09/12 05:57:47;;;;;;;7.85;5.60;;;14.40;99.90;;;;;;1974620;72;21475;-77
2021/09/12 06:00:14;;;;;;;5.50;5.00;;;14.40;99.90;;;;;;1971219;72;21502;-78
2021/09/12 06:02:40;;;;;;;6.95;4.87;;;14.30;99.90;;;;;;1974357;73;21055;-77
2021/09/12 06:05:06;;;;;;;4.62;4.22;;;14.30;99.90;;;;;;1973139;72;21078;-77
2021/09/12 06:07:32;;;;;;;4.33;3.92;;;14.40;99.90;;;;;;1972780;72;21124;-78
2021/09/12 06:09:58;;;;;;;4.22;3.92;;;14.40;99.90;;;;;;1976832;72;21149;-77
2021/09/12 06:12:24;;;;;;;4.50;4.10;;;14.20;99.90;;;;;;1972563;72;21137;-78
2021/09/12 06:14:51;;;;;;;5.15;3.90;;;14.10;99.90;;;;;;1975726;72;21064;-77
2021/09/12 06:17:17;;;;;;;5.08;4.60;;;14.10;99.90;;;;;;1974407;73;21141;-76
2021/09/12 06:19:43;;;;;;;4.12;3.75;;;14.20;99.90;;;;;;1974364;72;21032;-78
2021/09/12 06:22:09;;;;;;;4.10;3.70;;;14.30;99.90;;;;;;1974462;72;21114;-78
2021/09/12 06:24:35;;;;;;;3.85;3.55;;;14.20;99.90;;;;;;1973455;72;21057;-77
2021/09/12 06:27:01;;;;;;;3.83;3.52;;;14.30;99.90;;;;;;1972949;72;21077;-77
2021/09/12 06:29:27;;;;;;;3.45;3.15;;;14.40;99.90;;;;;;1974849;72;21036;-78
2021/09/12 06:31:53;;;;;;;4.45;3.62;;;14.40;99.90;;;;;;1968863;72;21027;-78
2021/09/12 06:34:20;;;;;;;3.42;3.22;;;14.30;99.90;;;;;;1968994;72;21066;-78
2021/09/12 06:36:46;;;;;;;3.80;3.50;;;14.20;99.90;;;;;;1967262;72;21116;-77
2021/09/12 06:39:12;;;;;;;3.27;2.98;;;14.20;99.90;;;;;;1973755;72;21128;-77
2021/09/12 06:41:38;;;;;;;5.08;3.70;;;14.30;99.90;;;;;;1974545;73;21117;-79
2021/09/12 06:44:04;;;;;;;4.67;3.80;;;14.30;99.90;;;;;;1974709;73;21055;-76
2021/09/12 06:46:30;;;;;;;3.92;3.40;;;14.20;99.90;;;;;;1974609;72;21059;-76
2021/09/12 06:48:56;;;;;;;3.77;3.45;;;14.20;99.90;;;;;;1974763;72;21120;-77
2021/09/12 06:51:22;;;;;;;5.80;3.37;;;14.30;99.90;;;;;;1968058;72;21026;-78
2021/09/12 06:53:49;;;;;;;4.62;4.22;;;14.40;99.90;;;;;;1982072;72;21121;-78
2021/09/12 06:56:15;;;;;;;4.90;4.50;;;14.50;99.90;;;;;;1968827;72;21124;-78
2021/09/12 06:58:42;;;;;;;4.97;4.40;;;14.50;99.90;;;;;;1983109;72;21137;-77
2021/09/12 07:01:08;;;;;;;5.58;5.03;;;14.50;99.90;;;;;;1974383;73;21589;-77
2021/09/12 07:03:34;;;;;;;5.83;5.03;;;14.60;99.90;;;;;;1963089;72;21050;-77
2021/09/12 07:06:00;;;;;;;5.50;5.00;;;14.50;99.90;;;;;;1975637;72;21043;-78
2021/09/12 07:08:26;;;;;;;5.50;4.97;;;14.40;99.90;;;;;;1968605;72;21063;-77
2021/09/12 07:10:52;;;;;;;4.53;4.12;;;14.50;99.90;;;;;;1973008;72;21072;-77
2021/09/12 07:13:19;;;;;;;6.08;5.50;;;14.40;99.90;;;;;;1975640;72;21126;-77
2021/09/12 07:15:45;;;;;;;6.40;4.28;;;14.50;99.90;;;;;;1970817;72;21117;-77
2021/09/12 07:18:11;;;;;;;4.53;3.95;;;14.70;99.90;;;;;;1971031;72;21137;-77
2021/09/12 07:20:37;;;;;;;5.17;4.37;;;14.70;99.90;;;;;;1963865;72;21127;-77
2021/09/12 07:23:03;;;;;;;6.83;4.47;;;14.80;99.90;;;;;;1974000;72;21125;-77
2021/09/12 07:25:30;;;;;;;4.55;4.15;;;14.80;99.90;;;;;;1970710;72;21067;-77
2021/09/12 07:27:57;;;;;;;5.33;4.00;;;14.90;99.90;;;;;;1972289;72;21135;-77
2021/09/12 07:30:23;;;;;;;4.22;3.80;;;15.10;99.90;;;;;;1985849;72;21121;-77
2021/09/12 07:32:49;;;;;;;5.00;4.47;;;15.10;99.90;;;;;;1973413;72;21098;-78
2021/09/12 07:35:15;;;;;;;5.05;4.65;;;15.10;99.90;;;;;;1981926;72;21067;-77
2021/09/12 07:37:41;;;;;;;9.08;4.17;;;15.10;99.90;;;;;;1969320;72;21049;-78
2021/09/12 07:40:07;;;;;;;6.75;4.17;;;15.20;99.90;;;;;;1981030;72;21144;-78
2021/09/12 07:42:34;;;;;;;5.40;4.60;;;15.30;99.90;;;;;;1984578;72;21133;-77
2021/09/12 07:45:00;;;;;;;18.77;4.55;;;15.50;99.90;;;;;;1974452;72;21148;-78
2021/09/12 07:47:26;;;;;;;4.08;3.77;;;15.60;99.90;;;;;;1980222;72;21579;-78
2021/09/12 07:49:52;;;;;;;4.78;3.70;;;15.80;99.90;;;;;;1971412;72;21436;-78
2021/09/12 07:52:18;;;;;;;4.12;3.72;;;16.00;99.90;;;;;;1983025;72;21463;-78
2021/09/12 07:54:44;;;;;;;8.58;3.95;;;16.00;99.90;;;;;;1987019;72;21360;-77
2021/09/12 07:57:10;;;;;;;5.45;3.85;;;16.10;99.90;;;;;;1975082;72;21503;-77
2021/09/12 07:59:36;;;;;;;4.30;2.98;;;16.20;99.90;;;;;;1967923;72;21541;-77
2021/09/12 08:02:02;;;;;;;3.50;3.20;;;16.30;99.90;;;;;;1974207;72;21464;-77
2021/09/12 08:04:29;;;;;;;3.65;3.35;;;16.10;99.90;;;;;;1973989;72;21083;-77
2021/09/12 08:06:55;;;;;;;3.85;3.52;;;16.20;99.90;;;;;;1974650;72;21129;-77
2021/09/12 08:09:21;;;;;;;3.90;3.50;;;16.30;99.90;;;;;;1974477;73;21055;-77
2021/09/12 08:11:47;;;;;;;5.35;3.72;;;16.40;99.90;;;;;;1972480;72;21063;-77
2021/09/12 08:14:13;;;;;;;4.58;3.77;;;16.70;99.90;;;;;;1968139;72;21023;-77
2021/09/12 08:16:39;;;;;;;4.78;3.40;;;16.90;99.90;;;;;;1971406;72;21087;-78
2021/09/12 08:19:05;;;;;;;5.47;3.40;;;16.80;99.90;;;;;;1977474;72;21125;-77
2021/09/12 08:21:31;;;;;;;5.60;3.85;;;16.70;99.90;;;;;;1972615;72;21067;-77
2021/09/12 08:23:58;;;;;;;3.85;3.27;;;16.70;99.90;;;;;;1975727;72;21027;-77
2021/09/12 08:26:24;;;;;;;4.83;3.85;;;16.70;99.90;;;;;;1979836;72;21182;-77
2021/09/12 08:28:50;;;;;;;3.55;3.25;;;17.30;99.90;;;;;;1970607;72;21124;-78
2021/09/12 08:31:16;;;;;;;3.60;3.27;;;17.40;99.90;;;;;;1954531;72;21054;-76
2021/09/12 08:33:44;;;;;;;5.72;3.45;;;17.60;99.90;;;;;;1970395;72;21027;-77
2021/09/12 08:36:10;;;;;;;3.33;3.02;;;17.80;99.90;;;;;;1977478;72;21129;-77
2021/09/12 08:38:36;;;;;;;3.17;2.98;;;18.10;99.90;;;;;;1974074;72;21125;-76
2021/09/12 08:41:02;;;;;;;2.98;2.77;;;18.20;99.90;;;;;;1971383;72;21055;-79
2021/09/12 08:43:30;;;;;;;3.45;2.72;;;18.10;99.90;;;;;;1974533;72;21531;-77
2021/09/12 08:45:56;;;;;;;4.67;3.12;;;18.40;99.90;;;;;;1970680;72;21059;-76
2021/09/12 08:48:22;;;;;;;3.72;3.35;;;18.20;99.90;;;;;;1975398;72;21515;-76
2021/09/12 08:50:48;;;;;;;3.65;3.25;;;18.70;99.90;;;;;;1980311;72;21538;-77
2021/09/12 08:53:15;;;;;;;3.30;2.80;;;18.60;99.90;;;;;;1975300;72;21504;-76
2021/09/12 08:55:41;;;;;;;3.15;2.77;;;18.70;99.90;;;;;;1978171;72;21499;-76
2021/09/12 08:58:07;;;;;;;2.92;2.72;;;18.90;99.90;;;;;;1979062;72;21480;-77
2021/09/12 09:00:33;;;;;;;2.87;2.67;;;18.90;99.90;;;;;;1971287;72;21483;-76
2021/09/12 09:02:59;;;;;;;8.35;3.58;;;18.90;99.90;;;;;;1968595;72;21128;-76
2021/09/12 09:05:25;;;;;;;3.33;2.95;;;19.40;99.90;;;;;;1974482;73;21133;-76
2021/09/12 09:07:51;;;;;;;3.30;3.10;;;19.50;99.90;;;;;;1974222;72;21129;-76
2021/09/12 09:10:19;;;;;;;4.60;2.77;;;19.50;99.90;;;;;;1974545;73;21063;-76
2021/09/12 09:12:45;;;;;;;5.33;3.42;;;19.50;99.90;;;;;;1975069;72;21090;-76
2021/09/12 09:15:12;;;;;;;3.22;3.02;;;19.80;99.90;;;;;;1976312;72;21136;-76
2021/09/12 09:17:38;;;;;;;4.53;3.80;;;19.20;99.90;;;;;;1974687;73;21117;-76
2021/09/12 09:20:06;;;;;;;3.80;3.50;;;19.10;99.90;;;;;;1972375;72;21027;-76
2021/09/12 09:22:32;;;;;;;3.77;3.25;;;19.50;99.90;;;;;;1971903;72;21605;-75
2021/09/12 09:24:58;;;;;;;4.40;3.67;;;19.40;99.90;;;;;;1973529;72;21505;-75
2021/09/12 09:27:24;;;;;;;4.22;3.83;;;19.90;99.90;;;;;;1972402;72;21050;-76
2021/09/12 09:29:50;;;;;;;4.53;3.30;;;20.20;99.90;;;;;;1976372;72;21064;-76
2021/09/12 09:32:16;;;;;;;3.25;2.95;;;20.70;99.90;;;;;;1965539;72;21115;-75
2021/09/12 09:34:42;;;;;;;4.25;3.83;;;20.10;99.90;;;;;;1968010;72;21066;-76
2021/09/12 09:37:09;;;;;;;4.00;3.58;;;19.90;99.90;;;;;;1975862;72;21059;-76
2021/09/12 09:39:35;;;;;;;5.03;3.35;;;20.60;99.90;;;;;;1972816;72;21049;-76
2021/09/12 09:42:01;;;;;;;3.67;3.37;;;20.90;99.90;;;;;;1971700;72;21120;-76
2021/09/12 09:44:28;;;;;;;4.03;3.62;;;20.70;99.90;;;;;;1973407;72;21067;-77
2021/09/12 09:46:54;;;;;;;3.12;2.83;;;21.20;99.90;;;;;;1975207;72;21063;-76
2021/09/12 09:49:20;;;;;;;4.15;2.62;;;21.70;99.90;;;;;;1970661;72;21041;-76
2021/09/12 09:51:46;;;;;;;2.95;2.30;;;21.60;99.90;;;;;;1975506;72;21074;-76
2021/09/12 09:54:12;;;;;;;2.27;2.08;;;21.70;99.90;;;;;;1982189;72;21194;-75
2021/09/12 09:56:39;;;;;;;1.60;1.50;;;21.10;99.90;;;;;;1981920;72;21058;-77
2021/09/12 09:59:05;;;;;;;1.60;1.50;;;21.30;99.90;;;;;;1978684;72;21047;-77
2021/09/12 10:01:31;;;;;;;1.22;1.07;;;21.80;99.90;;;;;;1973325;72;21035;-76
2021/09/12 10:03:57;;;;;;;2.37;1.90;;;22.50;99.90;;;;;;1972375;72;21054;-74
2021/09/12 10:06:23;;;;;;;3.05;1.72;;;22.30;99.90;;;;;;1975307;72;21076;-75
2021/09/12 10:08:49;;;;;;;1.77;1.60;;;22.70;99.90;;;;;;1971631;72;21128;-76
2021/09/12 10:11:15;;;;;;;1.60;1.50;;;22.30;99.90;;;;;;1963816;72;21095;-75
2021/09/12 10:13:41;;;;;;;1.52;1.17;;;22.70;99.90;;;;;;1966623;72;21190;-75
2021/09/12 10:16:07;;;;;;;1.90;1.30;;;23.40;99.90;;;;;;1973878;72;21121;-76
2021/09/12 10:18:34;;;;;;;5.03;2.20;;;23.70;99.90;;;;;;1966867;72;21062;-75
2021/09/12 10:21:00;;;;;;;1.00;0.90;;;24.20;99.90;;;;;;1978803;72;21087;-76
2021/09/12 10:23:26;;;;;;;5.83;0.98;;;24.60;99.90;;;;;;1988783;72;21587;-76
2021/09/12 10:25:53;;;;;;;1.95;0.93;;;24.90;99.90;;;;;;1974402;73;21023;-76
2021/09/12 10:28:19;;;;;;;0.93;0.78;;;25.00;99.90;;;;;;1970842;72;21063;-76
2021/09/12 10:30:45;;;;;;;0.80;0.80;;;24.90;99.90;;;;;;1970814;72;21052;-76
2021/09/12 10:33:11;;;;;;;0.70;0.70;;;24.50;99.90;;;;;;1974482;72;21067;-75
2021/09/12 10:35:37;;;;;;;2.75;1.17;;;24.40;99.90;;;;;;1975783;72;21031;-75
2021/09/12 10:38:03;;;;;;;1.57;0.82;;;24.30;99.90;;;;;;1978953;72;21074;-75
2021/09/12 10:40:29;;;;;;;1.27;1.17;;;24.30;99.90;;;;;;1980646;72;21635;-75
2021/09/12 10:42:56;;;;;;;3.92;1.45;;;24.60;99.90;;;;;;1977068;72;21491;-76
2021/09/12 10:45:22;;;;;;;2.52;1.07;;;25.00;99.90;;;;;;1969362;72;21435;-77
2021/09/12 10:47:48;;;;;;;1.90;1.37;;;24.50;99.90;;;;;;1984295;72;21526;-76
2021/09/12 10:50:14;;;;;;;2.05;1.27;;;25.10;99.90;;;;;;1971805;72;21486;-77
2021/09/12 10:52:40;;;;;;;0.80;0.72;;;25.10;99.90;;;;;;1967584;72;21580;-77
2021/09/12 10:55:06;;;;;;;1.15;0.98;;;24.50;99.90;;;;;;1974328;72;21440;-77
2021/09/12 10:57:32;;;;;;;1.17;1.00;;;24.30;99.90;;;;;;1970747;72;21117;-76
2021/09/12 10:59:58;;;;;;;2.25;1.00;;;24.00;99.90;;;;;;1967545;72;21067;-76
2021/09/12 11:02:25;;;;;;;0.90;0.90;;;23.90;99.90;;;;;;1973362;72;21125;-76
2021/09/12 11:04:51;;;;;;;0.98;0.95;;;24.00;99.90;;;;;;1964535;72;21028;-76
2021/09/12 11:07:17;;;;;;;0.70;0.70;;;24.40;99.90;;;;;;1972965;72;21117;-76
2021/09/12 11:09:43;;;;;;;1.50;0.90;;;24.20;99.90;;;;;;1971804;72;21125;-77
2021/09/12 11:12:10;;;;;;;1.85;1.10;;;24.10;99.90;;;;;;1969285;72;21106;-76
2021/09/12 11:14:38;;;;;;;1.32;1.00;;;24.20;99.90;;;;;;1974882;72;21078;-76
2021/09/12 11:17:04;;;;;;;1.40;1.00;;;24.80;99.90;;;;;;1975555;72;21137;-76
2021/09/12 11:19:30;;;;;;;2.52;1.10;;;25.40;99.90;;;;;;1969067;72;21177;-75
2021/09/12 11:21:56;;;;;;;1.85;1.12;;;25.70;99.90;;;;;;1975062;72;21067;-76
2021/09/12 11:24:22;;;;;;;2.75;1.37;;;25.00;99.90;;;;;;1974419;73;21059;-76
2021/09/12 11:26:49;;;;;;;1.57;0.80;;;25.20;99.90;;;;;;1974566;73;21067;-75
2021/09/12 11:29:15;;;;;;;1.65;1.02;;;25.30;99.90;;;;;;1972144;72;21043;-76
2021/09/12 11:31:41;;;;;;;1.35;1.05;;;25.50;99.90;;;;;;1976024;72;21063;-75
2021/09/12 11:34:07;;;;;;;1.82;1.17;;;25.50;99.90;;;;;;1968798;72;21075;-75
2021/09/12 11:36:33;;;;;;;2.70;0.85;;;25.80;99.90;;;;;;1979972;72;21128;-75
2021/09/12 11:38:59;;;;;;;1.82;1.20;;;26.60;99.90;;;;;;1975603;72;21179;-76
2021/09/12 11:41:26;;;;;;;0.82;0.80;;;26.60;99.90;;;;;;1981879;72;21036;-76
2021/09/12 11:43:52;;;;;;;0.88;0.88;;;26.90;99.90;;;;;;1975771;72;21144;-76
2021/09/12 11:46:18;;;;;;;1.27;0.80;;;27.50;99.90;;;;;;1976026;72;21064;-76
2021/09/12 11:48:44;;;;;;;1.00;0.95;;;27.60;99.90;;;;;;1974377;73;21116;-76
2021/09/12 11:51:10;;;;;;;0.80;0.80;;;28.10;99.90;;;;;;1971252;72;21058;-76
2021/09/12 11:53:36;;;;;;;1.67;0.98;;;27.00;99.90;;;;;;1975325;72;21054;-76
2021/09/12 11:56:03;;;;;;;0.80;0.80;;;27.90;99.90;;;;;;1985067;72;21074;-75
2021/09/12 11:58:29;;;;;;;1.72;0.93;;;27.30;99.90;;;;;;1976999;72;21125;-75
2021/09/12 12:00:55;;;;;;;1.17;0.82;;;27.90;99.90;;;;;;1971521;72;21062;-74
2021/09/12 12:03:22;;;;;;;1.67;0.95;;;28.50;99.90;;;;;;1986711;72;21456;-75
2021/09/12 12:05:49;;;;;;;2.05;0.80;;;28.80;99.90;;;;;;1967724;72;21050;-75
2021/09/12 12:08:17;;;;;;;1.05;0.90;;;28.40;99.90;;;;;;1980203;72;21044;-76
2021/09/12 12:10:43;;;;;;;3.52;1.00;;;27.20;99.90;;;;;;1968666;72;21164;-74
2021/09/12 12:13:10;;;;;;;1.22;1.00;;;27.60;99.90;;;;;;1982397;72;21114;-75
2021/09/12 12:15:36;;;;;;;1.60;1.12;;;26.80;99.90;;;;;;1974782;72;21054;-74
2021/09/12 12:18:02;;;;;;;1.02;1.00;;;26.10;99.90;;;;;;1974989;73;21125;-75
2021/09/12 12:20:29;;;;;;;1.10;0.93;;;26.80;99.90;;;;;;1974949;73;21051;-75
2021/09/12 12:22:55;;;;;;;1.70;0.98;;;27.70;99.90;;;;;;1968578;72;21157;-75
2021/09/12 12:25:21;;;;;;;3.25;1.00;;;27.90;99.90;;;;;;1972863;72;21056;-75
2021/09/12 12:27:50;;;;;;;0.78;0.78;;;27.90;99.90;;;;;;1972397;72;21066;-75
2021/09/12 12:30:16;;;;;;;1.00;0.90;;;28.20;99.90;;;;;;1975859;72;21074;-75
2021/09/12 12:32:42;;;;;;;1.47;1.07;;;28.10;99.90;;;;;;1978827;72;21072;-75
2021/09/12 12:35:08;;;;;;;1.02;0.95;;;28.00;99.90;;;;;;1967802;72;21480;-74